sensor_id;sensor_type;location;lat;lon;timestamp;P1;durP1;ratioP1;P2;durP2;ratioP2
69026;SDS011;56080;47.594;19.116;2023-02-22T00:02:41;9.40;;;3.00;;
69026;SDS011;56080;47.594;19.116;2023-02-22T00:12:41;5.30;;;2.20;;
69026;SDS011;56080;47.594;19.116;2023-02-22T00:22:43;5.80;;;2.50;;
69026;SDS011;56080;47.594;19.116;2023-02-22T00:32:44;5.70;;;2.40;;
69026;SDS011;56080;47.594;19.116;2023-02-22T00:42:44;4.60;;;2.00;;
69026;SDS011;56080;47.594;19.116;2023-02-22T00:52:46;5.40;;;2.30;;
69026;SDS011;56080;47.594;19.116;2023-02-22T01:02:46;4.70;;;2.00;;
69026;SDS011;56080;47.594;19.116;2023-02-22T01:12:46;5.30;;;2.20;;
69026;SDS011;56080;47.594;19.116;2023-02-22T01:22:52;5.20;;;2.20;;
69026;SDS011;56080;47.594;19.116;2023-02-22T01:32:49;5.30;;;2.20;;
69026;SDS011;56080;47.594;19.116;2023-02-22T01:42:50;4.80;;;2.20;;
69026;SDS011;56080;47.594;19.116;2023-02-22T01:52:50;4.50;;;1.90;;
69026;SDS011;56080;47.594;19.116;2023-02-22T02:02:54;4.70;;;2.00;;
69026;SDS011;56080;47.594;19.116;2023-02-22T02:33:05;5.90;;;2.40;;
69026;SDS011;56080;47.594;19.116;2023-02-22T02:43:08;5.10;;;2.40;;
69026;SDS011;56080;47.594;19.116;2023-02-22T02:52:56;5.00;;;2.30;;
69026;SDS011;56080;47.594;19.116;2023-02-22T03:03:06;4.90;;;2.10;;
69026;SDS011;56080;47.594;19.116;2023-02-22T03:33:06;5.60;;;2.40;;
69026;SDS011;56080;47.594;19.116;2023-02-22T03:43:06;6.60;;;2.80;;
69026;SDS011;56080;47.594;19.116;2023-02-22T03:53:00;6.10;;;2.70;;
69026;SDS011;56080;47.594;19.116;2023-02-22T04:03:01;6.20;;;2.70;;
69026;SDS011;56080;47.594;19.116;2023-02-22T04:13:01;5.70;;;2.80;;
69026;SDS011;56080;47.594;19.116;2023-02-22T04:23:02;5.50;;;2.50;;
69026;SDS011;56080;47.594;19.116;2023-02-22T04:33:03;6.20;;;3.00;;
69026;SDS011;56080;47.594;19.116;2023-02-22T04:43:03;6.50;;;3.40;;
69026;SDS011;56080;47.594;19.116;2023-02-22T04:53:05;6.30;;;3.10;;
69026;SDS011;56080;47.594;19.116;2023-02-22T05:03:05;6.10;;;3.10;;
69026;SDS011;56080;47.594;19.116;2023-02-22T05:13:06;9.10;;;5.10;;
69026;SDS011;56080;47.594;19.116;2023-02-22T05:23:08;7.50;;;3.90;;
69026;SDS011;56080;47.594;19.116;2023-02-22T05:33:08;8.40;;;4.10;;
69026;SDS011;56080;47.594;19.116;2023-02-22T05:43:08;7.80;;;4.10;;
69026;SDS011;56080;47.594;19.116;2023-02-22T05:53:08;8.10;;;4.40;;
69026;SDS011;56080;47.594;19.116;2023-02-22T06:03:11;8.30;;;4.20;;
69026;SDS011;56080;47.594;19.116;2023-02-22T06:13:10;10.10;;;5.60;;
69026;SDS011;56080;47.594;19.116;2023-02-22T06:23:10;7.80;;;4.60;;
69026;SDS011;56080;47.594;19.116;2023-02-22T06:33:10;8.70;;;5.00;;
69026;SDS011;56080;47.594;19.116;2023-02-22T06:43:11;8.00;;;4.60;;
69026;SDS011;56080;47.594;19.116;2023-02-22T06:53:12;8.80;;;4.60;;
69026;SDS011;56080;47.594;19.116;2023-02-22T07:13:14;6.70;;;3.40;;
69026;SDS011;56080;47.594;19.116;2023-02-22T07:23:14;7.40;;;3.90;;
69026;SDS011;56080;47.594;19.116;2023-02-22T07:33:16;7.90;;;3.90;;
69026;SDS011;56080;47.594;19.116;2023-02-22T07:43:26;7.00;;;3.50;;
69026;SDS011;56080;47.594;19.116;2023-02-22T07:53:22;6.90;;;3.80;;
69026;SDS011;56080;47.594;19.116;2023-02-22T08:03:19;10.00;;;5.10;;
69026;SDS011;56080;47.594;19.116;2023-02-22T08:13:18;7.50;;;4.50;;
69026;SDS011;56080;47.594;19.116;2023-02-22T08:23:21;7.30;;;4.00;;
69026;SDS011;56080;47.594;19.116;2023-02-22T08:33:24;9.10;;;5.60;;
69026;SDS011;56080;47.594;19.116;2023-02-22T08:43:23;8.40;;;4.80;;
69026;SDS011;56080;47.594;19.116;2023-02-22T08:53:23;7.80;;;5.60;;
69026;SDS011;56080;47.594;19.116;2023-02-22T09:03:24;7.70;;;4.70;;
69026;SDS011;56080;47.594;19.116;2023-02-22T09:13:25;9.70;;;6.10;;
69026;SDS011;56080;47.594;19.116;2023-02-22T09:23:26;7.70;;;4.60;;
69026;SDS011;56080;47.594;19.116;2023-02-22T09:33:29;8.70;;;4.70;;
69026;SDS011;56080;47.594;19.116;2023-02-22T09:43:47;8.00;;;4.60;;
69026;SDS011;56080;47.594;19.116;2023-02-22T09:53:34;7.80;;;5.20;;
69026;SDS011;56080;47.594;19.116;2023-02-22T10:03:41;9.80;;;6.40;;
69026;SDS011;56080;47.594;19.116;2023-02-22T10:23:35;10.20;;;6.60;;
69026;SDS011;56080;47.594;19.116;2023-02-22T10:33:45;9.90;;;6.40;;
69026;SDS011;56080;47.594;19.116;2023-02-22T10:43:36;9.80;;;6.30;;
69026;SDS011;56080;47.594;19.116;2023-02-22T11:03:36;9.00;;;5.50;;
69026;SDS011;56080;47.594;19.116;2023-02-22T11:13:38;8.20;;;5.00;;
69026;SDS011;56080;47.594;19.116;2023-02-22T11:23:39;7.50;;;4.60;;
69026;SDS011;56080;47.594;19.116;2023-02-22T11:33:45;6.70;;;4.10;;
69026;SDS011;56080;47.594;19.116;2023-02-22T11:43:48;8.30;;;5.10;;
69026;SDS011;56080;47.594;19.116;2023-02-22T12:23:49;11.70;;;7.60;;
69026;SDS011;56080;47.594;19.116;2023-02-22T12:33:58;14.00;;;8.60;;
69026;SDS011;56080;47.594;19.116;2023-02-22T12:43:56;12.10;;;7.80;;
69026;SDS011;56080;47.594;19.116;2023-02-22T12:53:54;11.50;;;7.70;;
69026;SDS011;56080;47.594;19.116;2023-02-22T13:03:47;12.30;;;7.70;;
69026;SDS011;56080;47.594;19.116;2023-02-22T13:43:55;15.10;;;9.10;;
69026;SDS011;56080;47.594;19.116;2023-02-22T13:54:05;12.90;;;8.60;;
69026;SDS011;56080;47.594;19.116;2023-02-22T14:03:52;12.20;;;8.40;;
69026;SDS011;56080;47.594;19.116;2023-02-22T14:23:55;10.80;;;6.70;;
69026;SDS011;56080;47.594;19.116;2023-02-22T14:43:57;11.50;;;7.50;;
69026;SDS011;56080;47.594;19.116;2023-02-22T14:54:06;12.50;;;7.90;;
69026;SDS011;56080;47.594;19.116;2023-02-22T15:04:25;11.10;;;7.00;;
69026;SDS011;56080;47.594;19.116;2023-02-22T15:14:00;10.80;;;6.40;;
69026;SDS011;56080;47.594;19.116;2023-02-22T15:24:02;10.30;;;6.30;;
69026;SDS011;56080;47.594;19.116;2023-02-22T15:34:20;13.10;;;7.60;;
69026;SDS011;56080;47.594;19.116;2023-02-22T15:44:11;11.70;;;6.60;;
69026;SDS011;56080;47.594;19.116;2023-02-22T15:54:02;12.50;;;7.80;;
69026;SDS011;56080;47.594;19.116;2023-02-22T16:04:06;10.20;;;6.70;;
69026;SDS011;56080;47.594;19.116;2023-02-22T16:24:27;11.60;;;6.30;;
69026;SDS011;56080;47.594;19.116;2023-02-22T16:34:07;10.40;;;6.50;;
69026;SDS011;56080;47.594;19.116;2023-02-22T16:44:11;10.20;;;5.50;;
69026;SDS011;56080;47.594;19.116;2023-02-22T16:54:10;12.40;;;6.40;;
69026;SDS011;56080;47.594;19.116;2023-02-22T17:04:15;11.90;;;6.00;;
69026;SDS011;56080;47.594;19.116;2023-02-22T17:14:11;10.20;;;5.80;;
69026;SDS011;56080;47.594;19.116;2023-02-22T17:24:14;9.60;;;5.60;;
69026;SDS011;56080;47.594;19.116;2023-02-22T17:34:13;9.20;;;4.90;;
69026;SDS011;56080;47.594;19.116;2023-02-22T17:44:13;8.30;;;4.30;;
69026;SDS011;56080;47.594;19.116;2023-02-22T17:54:15;10.40;;;4.90;;
69026;SDS011;56080;47.594;19.116;2023-02-22T18:04:18;11.00;;;5.40;;
69026;SDS011;56080;47.594;19.116;2023-02-22T18:14:18;9.20;;;5.40;;
69026;SDS011;56080;47.594;19.116;2023-02-22T18:24:16;11.20;;;5.60;;
69026;SDS011;56080;47.594;19.116;2023-02-22T18:34:18;9.90;;;5.30;;
69026;SDS011;56080;47.594;19.116;2023-02-22T18:44:21;11.70;;;6.20;;
69026;SDS011;56080;47.594;19.116;2023-02-22T18:54:23;10.20;;;5.30;;
69026;SDS011;56080;47.594;19.116;2023-02-22T19:04:22;13.00;;;6.80;;
69026;SDS011;56080;47.594;19.116;2023-02-22T19:14:22;13.40;;;6.60;;
69026;SDS011;56080;47.594;19.116;2023-02-22T19:24:22;11.30;;;6.00;;
69026;SDS011;56080;47.594;19.116;2023-02-22T19:34:24;13.20;;;7.10;;
69026;SDS011;56080;47.594;19.116;2023-02-22T19:44:24;16.10;;;8.60;;
69026;SDS011;56080;47.594;19.116;2023-02-22T19:54:29;15.60;;;8.70;;
69026;SDS011;56080;47.594;19.116;2023-02-22T20:04:28;14.90;;;7.40;;
69026;SDS011;56080;47.594;19.116;2023-02-22T20:14:32;13.80;;;7.90;;
69026;SDS011;56080;47.594;19.116;2023-02-22T20:24:28;14.10;;;7.40;;
69026;SDS011;56080;47.594;19.116;2023-02-22T20:34:28;14.80;;;7.20;;
69026;SDS011;56080;47.594;19.116;2023-02-22T20:44:31;13.20;;;6.90;;
69026;SDS011;56080;47.594;19.116;2023-02-22T20:54:29;17.10;;;7.60;;
69026;SDS011;56080;47.594;19.116;2023-02-22T21:04:31;14.30;;;7.80;;
69026;SDS011;56080;47.594;19.116;2023-02-22T21:14:36;16.80;;;8.00;;
69026;SDS011;56080;47.594;19.116;2023-02-22T21:24:34;14.80;;;7.80;;
69026;SDS011;56080;47.594;19.116;2023-02-22T21:44:32;15.00;;;7.50;;
69026;SDS011;56080;47.594;19.116;2023-02-22T21:54:33;12.10;;;7.10;;
69026;SDS011;56080;47.594;19.116;2023-02-22T22:04:35;14.10;;;7.20;;
69026;SDS011;56080;47.594;19.116;2023-02-22T22:14:35;14.20;;;7.80;;
69026;SDS011;56080;47.594;19.116;2023-02-22T22:24:36;18.30;;;8.00;;
69026;SDS011;56080;47.594;19.116;2023-02-22T22:34:38;12.00;;;6.70;;
69026;SDS011;56080;47.594;19.116;2023-02-22T22:44:41;15.00;;;8.30;;
69026;SDS011;56080;47.594;19.116;2023-02-22T22:54:38;15.30;;;7.20;;
69026;SDS011;56080;47.594;19.116;2023-02-22T23:04:38;14.50;;;6.90;;
69026;SDS011;56080;47.594;19.116;2023-02-22T23:14:40;14.40;;;7.60;;
69026;SDS011;56080;47.594;19.116;2023-02-22T23:24:39;12.30;;;6.90;;
69026;SDS011;56080;47.594;19.116;2023-02-22T23:34:40;15.30;;;7.40;;
69026;SDS011;56080;47.594;19.116;2023-02-22T23:44:41;13.90;;;6.30;;
69026;SDS011;56080;47.594;19.116;2023-02-22T23:54:46;16.50;;;8.20;;
